Time;durP1;ratioP1;P1;durP2;ratioP2;P2;SDS_P1;SDS_P2;PMS_P1;PMS_P2;Temp;Humidity;BMP_temperature;BMP_pressure;BME280_temperature;BME280_humidity;BME280_pressure;Samples;Min_cycle;Max_cycle;Signal;HPM_P1;HPM_P2
2021/12/08 00:00:40;;;;;;;50.88;28.42;;;1.50;99.90;;;;;;5068684;28;20474;-51
2021/12/08 00:03:09;;;;;;;51.13;29.27;;;1.50;99.90;;;;;;5067431;28;20628;-50
2021/12/08 00:05:36;;;;;;;53.97;27.63;;;1.50;99.90;;;;;;5069420;28;20286;-49
2021/12/08 00:08:04;;;;;;;47.45;27.63;;;1.40;99.90;;;;;;5067525;28;20186;-50
2021/12/08 00:13:05;;;;;;;58.90;29.48;;;1.40;99.90;;;;;;5061551;28;20173;-50
2021/12/08 00:15:31;;;;;;;53.13;28.30;;;1.30;99.90;;;;;;5074969;28;20200;-52
2021/12/08 00:17:59;;;;;;;57.55;29.58;;;1.40;99.90;;;;;;5069851;28;20181;-52
2021/12/08 00:20:28;;;;;;;49.10;28.73;;;1.30;99.90;;;;;;5068423;28;20260;-52
2021/12/08 00:22:54;;;;;;;52.03;26.98;;;1.30;99.90;;;;;;5076191;28;20233;-54
2021/12/08 00:25:19;;;;;;;53.80;28.00;;;1.30;99.90;;;;;;5084900;28;20213;-51
2021/12/08 00:27:45;;;;;;;52.43;28.30;;;1.30;99.90;;;;;;5076886;28;20468;-51
2021/12/08 00:30:11;;;;;;;54.77;27.87;;;1.30;99.90;;;;;;5082373;28;20221;-54
2021/12/08 00:32:36;;;;;;;52.77;28.67;;;1.30;99.90;;;;;;5074403;28;20179;-50
2021/12/08 00:35:04;;;;;;;60.73;29.43;;;1.20;99.90;;;;;;5064162;28;20186;-54
2021/12/08 00:37:30;;;;;;;52.97;28.23;;;1.20;99.90;;;;;;5074532;28;20795;-55
2021/12/08 00:39:56;;;;;;;49.70;28.23;;;1.20;99.90;;;;;;5068071;28;20219;-59
2021/12/08 00:42:21;;;;;;;48.72;27.73;;;1.20;99.90;;;;;;5071298;28;20202;-52
2021/12/08 00:44:47;;;;;;;60.93;29.17;;;1.20;99.90;;;;;;5079354;28;20178;-49
2021/12/08 00:47:13;;;;;;;51.07;28.10;;;1.30;99.90;;;;;;5084777;28;20893;-53
2021/12/08 00:49:40;;;;;;;50.58;27.70;;;1.30;99.90;;;;;;5087304;28;20203;-53
2021/12/08 00:52:06;;;;;;;53.22;28.60;;;1.40;99.90;;;;;;5072804;28;20206;-48
2021/12/08 00:54:32;;;;;;;43.00;27.08;;;1.40;99.90;;;;;;5085009;28;20185;-49
2021/12/08 00:56:57;;;;;;;51.97;28.60;;;1.50;99.90;;;;;;5076273;28;20192;-52
2021/12/08 00:59:23;;;;;;;46.33;26.47;;;1.50;99.90;;;;;;5084361;28;20189;-48
2021/12/08 01:01:49;;;;;;;48.50;28.15;;;1.60;99.90;;;;;;5066858;28;20219;-51
2021/12/08 01:04:15;;;;;;;45.17;25.97;;;1.70;99.90;;;;;;5077830;28;20666;-48
2021/12/08 01:06:42;;;;;;;45.90;27.17;;;1.70;99.90;;;;;;5067804;28;20198;-48
2021/12/08 01:09:08;;;;;;;48.58;28.48;;;1.70;99.90;;;;;;5075445;28;20185;-53
2021/12/08 01:11:35;;;;;;;46.47;26.23;;;1.70;99.90;;;;;;5053515;28;20208;-51
2021/12/08 01:14:01;;;;;;;42.97;25.77;;;1.70;99.90;;;;;;5079530;28;20444;-53
2021/12/08 01:16:27;;;;;;;42.90;25.90;;;1.70;99.90;;;;;;5084893;28;20185;-51
2021/12/08 01:18:52;;;;;;;45.70;26.83;;;1.80;99.90;;;;;;5072794;28;20442;-54
2021/12/08 01:21:20;;;;;;;42.87;25.70;;;1.80;99.90;;;;;;5081519;28;20185;-51
2021/12/08 01:23:46;;;;;;;45.72;25.40;;;1.90;99.90;;;;;;5085246;28;20673;-50
2021/12/08 01:26:12;;;;;;;40.17;26.45;;;1.90;99.90;;;;;;5076352;28;20240;-49
2021/12/08 01:28:38;;;;;;;43.83;26.17;;;2.00;99.90;;;;;;5076995;28;21122;-50
2021/12/08 01:31:05;;;;;;;41.85;24.73;;;2.10;99.90;;;;;;5080383;28;20250;-53
2021/12/08 01:33:33;;;;;;;41.88;26.77;;;2.10;99.90;;;;;;5081601;28;20938;-50
2021/12/08 01:36:02;;;;;;;43.17;27.05;;;2.10;99.90;;;;;;5069570;28;20185;-50
2021/12/08 01:38:28;;;;;;;41.58;25.48;;;2.10;99.90;;;;;;5070325;28;20273;-50
2021/12/08 01:40:54;;;;;;;46.67;25.42;;;2.10;99.90;;;;;;5072303;28;20193;-53
2021/12/08 01:43:25;;;;;;;43.70;25.07;;;2.10;99.90;;;;;;5073719;28;20545;-48
2021/12/08 01:46:00;;;;;;;44.55;26.98;;;2.10;99.90;;;;;;5070866;28;20984;-49
2021/12/08 01:48:29;;;;;;;44.28;26.05;;;2.10;99.90;;;;;;5084678;28;20188;-51
2021/12/08 01:51:01;;;;;;;43.78;26.13;;;2.20;99.90;;;;;;5080429;28;20529;-51
2021/12/08 01:53:29;;;;;;;40.88;24.88;;;2.20;99.90;;;;;;5088923;28;20173;-51
2021/12/08 01:55:55;;;;;;;43.67;25.58;;;2.20;99.90;;;;;;5085012;28;20602;-55
2021/12/08 01:58:21;;;;;;;43.13;24.23;;;2.30;99.90;;;;;;5081033;28;20187;-51
2021/12/08 02:00:54;;;;;;;42.38;26.65;;;2.40;99.90;;;;;;5074481;28;20230;-50
2021/12/08 02:03:20;;;;;;;41.95;25.58;;;2.30;99.90;;;;;;5083834;28;20228;-50
2021/12/08 02:05:47;;;;;;;38.25;25.70;;;2.40;99.90;;;;;;5073088;28;20302;-51
2021/12/08 02:08:13;;;;;;;40.15;25.73;;;2.40;99.90;;;;;;5080087;28;20234;-53
2021/12/08 02:10:40;;;;;;;38.93;24.27;;;2.40;99.90;;;;;;5085576;28;20176;-53
2021/12/08 02:13:07;;;;;;;39.70;24.75;;;2.40;99.90;;;;;;5058398;28;20577;-53
2021/12/08 02:15:34;;;;;;;38.92;24.20;;;2.40;99.90;;;;;;5072733;28;20186;-55
2021/12/08 02:18:00;;;;;;;39.30;23.60;;;2.40;99.90;;;;;;5064207;28;20186;-49
2021/12/08 02:20:27;;;;;;;39.70;25.07;;;2.40;99.90;;;;;;5070595;28;20182;-51
2021/12/08 02:22:53;;;;;;;35.38;23.00;;;2.40;99.90;;;;;;5071516;28;20801;-51
2021/12/08 02:25:22;;;;;;;34.53;21.40;;;2.30;99.90;;;;;;5066453;28;20193;-52
2021/12/08 02:27:48;;;;;;;37.55;22.88;;;2.20;99.90;;;;;;5070880;28;20444;-49
2021/12/08 02:30:25;;;;;;;36.50;23.52;;;2.20;99.90;;;;;;5069559;28;20189;-51
2021/12/08 02:49:13;;;;;;;34.35;21.80;;;2.00;99.90;;;;;;5075574;28;20572;-50
2021/12/08 02:51:40;;;;;;;35.45;22.90;;;2.00;99.90;;;;;;5079519;28;20261;-50
2021/12/08 02:54:06;;;;;;;35.83;23.17;;;2.00;99.90;;;;;;5056029;28;20189;-53
2021/12/08 02:56:32;;;;;;;38.33;23.20;;;1.90;99.90;;;;;;5084943;28;20208;-49
2021/12/08 02:58:58;;;;;;;38.97;24.00;;;1.90;99.90;;;;;;5069047;28;20469;-49
2021/12/08 03:01:25;;;;;;;34.28;21.98;;;1.90;99.90;;;;;;5079636;28;20189;-54
2021/12/08 03:03:51;;;;;;;34.28;22.58;;;1.90;99.90;;;;;;5073507;28;20224;-52
2021/12/08 03:06:17;;;;;;;31.07;21.80;;;1.90;99.90;;;;;;5075495;28;20237;-50
2021/12/08 03:08:43;;;;;;;35.20;22.38;;;1.90;99.90;;;;;;5069134;28;20808;-55
2021/12/08 03:11:09;;;;;;;32.58;20.73;;;2.00;99.90;;;;;;5074688;28;20190;-52
2021/12/08 03:13:59;;;;;;;35.87;23.27;;;2.00;99.90;;;;;;5066178;28;20182;-52
2021/12/08 03:16:25;;;;;;;34.03;22.58;;;1.90;99.90;;;;;;5072299;28;20196;-50
2021/12/08 03:18:51;;;;;;;35.17;21.87;;;2.00;99.90;;;;;;5076449;28;20556;-51
2021/12/08 03:21:16;;;;;;;33.70;20.33;;;2.00;99.90;;;;;;5071594;28;20186;-52
2021/12/08 03:23:56;;;;;;;34.33;21.97;;;2.00;99.90;;;;;;5077517;28;20233;-50
2021/12/08 03:26:29;;;;;;;30.90;21.15;;;2.00;99.90;;;;;;5067576;28;20232;-51
2021/12/08 03:29:18;;;;;;;31.48;21.52;;;2.10;99.90;;;;;;5090424;28;20181;-50
2021/12/08 03:31:46;;;;;;;32.28;21.48;;;2.00;99.90;;;;;;5072176;28;20184;-54
2021/12/08 03:34:12;;;;;;;35.22;22.33;;;2.00;99.90;;;;;;5068420;28;20809;-51
2021/12/08 03:36:39;;;;;;;32.00;22.60;;;2.00;99.90;;;;;;5083345;28;20187;-56
2021/12/08 03:39:06;;;;;;;31.38;20.95;;;2.00;99.90;;;;;;5080480;28;20997;-49
2021/12/08 03:41:34;;;;;;;34.92;21.35;;;2.10;99.90;;;;;;5077078;28;20192;-51
2021/12/08 03:44:01;;;;;;;32.03;19.88;;;2.10;99.90;;;;;;5075590;28;20249;-54
2021/12/08 03:46:28;;;;;;;31.15;19.85;;;2.20;99.90;;;;;;5080599;28;20577;-49
2021/12/08 03:48:54;;;;;;;28.63;21.35;;;2.20;99.90;;;;;;5074089;28;20704;-54
2021/12/08 03:51:20;;;;;;;29.07;18.97;;;2.20;99.90;;;;;;5069308;28;20190;-54
2021/12/08 03:53:46;;;;;;;31.83;21.57;;;2.20;99.90;;;;;;5068269;28;20463;-50
2021/12/08 03:56:12;;;;;;;34.70;22.15;;;2.20;99.90;;;;;;5069386;28;20435;-55
2021/12/08 03:58:38;;;;;;;29.93;19.80;;;2.20;99.90;;;;;;5068598;28;20186;-50
2021/12/08 04:01:05;;;;;;;29.07;20.03;;;2.20;99.90;;;;;;5051011;28;20687;-54
2021/12/08 04:03:33;;;;;;;29.85;20.08;;;2.30;99.90;;;;;;5068959;28;20185;-50
2021/12/08 04:06:07;;;;;;;33.42;22.65;;;2.30;99.90;;;;;;5067869;28;20208;-53
2021/12/08 04:08:53;;;;;;;31.27;21.38;;;2.30;99.90;;;;;;5068968;28;20180;-49
2021/12/08 04:11:19;;;;;;;30.23;19.27;;;2.20;99.90;;;;;;5066478;28;20174;-53
2021/12/08 04:13:49;;;;;;;29.03;19.93;;;2.20;99.90;;;;;;5062002;28;20196;-51
2021/12/08 04:16:19;;;;;;;29.50;20.83;;;2.20;99.90;;;;;;5065393;28;20204;-50
2021/12/08 04:18:45;;;;;;;33.08;21.58;;;2.10;99.90;;;;;;5068815;28;20281;-52
2021/12/08 04:21:15;;;;;;;30.27;20.80;;;2.10;99.90;;;;;;5085427;28;20271;-50
2021/12/08 04:23:42;;;;;;;33.67;21.17;;;2.10;99.90;;;;;;5051326;28;20234;-49
2021/12/08 04:26:12;;;;;;;32.92;21.65;;;2.10;99.90;;;;;;5051795;28;20210;-54
2021/12/08 04:28:38;;;;;;;32.58;19.75;;;2.10;99.90;;;;;;5048259;28;20790;-53
2021/12/08 04:31:20;;;;;;;32.77;20.00;;;2.10;99.90;;;;;;5043667;28;20266;-53
2021/12/08 04:33:56;;;;;;;36.03;21.60;;;2.20;99.90;;;;;;5042232;28;20440;-52
2021/12/08 04:36:24;;;;;;;33.10;19.88;;;2.10;99.90;;;;;;5051871;28;20256;-49
2021/12/08 04:38:54;;;;;;;33.53;20.88;;;2.10;99.90;;;;;;5038007;28;20194;-50
2021/12/08 04:41:29;;;;;;;33.70;21.13;;;2.10;99.90;;;;;;5046190;28;20191;-54
2021/12/08 04:44:05;;;;;;;38.17;21.40;;;2.10;99.90;;;;;;5040679;28;20189;-53
2021/12/08 04:49:28;;;;;;;32.03;21.48;;;2.20;99.90;;;;;;5047745;28;20186;-50
2021/12/08 04:52:15;;;;;;;34.00;21.63;;;2.30;99.90;;;;;;5032935;28;20227;-48
2021/12/08 05:06:35;;;;;;;30.67;19.55;;;2.10;99.90;;;;;;5044246;28;20208;-50
2021/12/08 05:09:00;;;;;;;27.55;19.38;;;2.10;99.90;;;;;;5047233;28;20182;-49
2021/12/08 05:11:31;;;;;;;29.30;19.37;;;2.00;99.90;;;;;;5044130;28;20205;-52
2021/12/08 05:14:06;;;;;;;31.13;19.25;;;2.00;99.90;;;;;;5040613;28;20194;-53
2021/12/08 05:16:33;;;;;;;31.20;18.95;;;1.90;99.90;;;;;;5049134;28;20189;-52
2021/12/08 05:19:01;;;;;;;25.10;16.67;;;1.90;99.90;;;;;;5049096;28;20186;-52
2021/12/08 05:21:38;;;;;;;29.55;20.23;;;1.90;99.90;;;;;;5049993;28;20187;-53
2021/12/08 05:24:11;;;;;;;29.73;18.80;;;1.90;99.90;;;;;;5050844;28;20264;-52
2021/12/08 05:26:47;;;;;;;26.95;17.67;;;1.90;99.90;;;;;;5051284;28;20207;-48
2021/12/08 05:29:21;;;;;;;32.22;18.73;;;1.80;99.90;;;;;;5049023;28;20236;-58
2021/12/08 05:31:47;;;;;;;26.30;18.20;;;1.90;99.90;;;;;;5043757;28;20183;-54
2021/12/08 05:34:13;;;;;;;28.27;18.65;;;1.90;99.90;;;;;;5046907;28;20209;-54
2021/12/08 05:36:40;;;;;;;29.25;19.83;;;2.00;99.90;;;;;;5055419;28;20194;-55
2021/12/08 05:39:19;;;;;;;27.23;17.75;;;2.00;99.90;;;;;;5071812;28;20205;-55
2021/12/08 05:41:48;;;;;;;25.63;18.50;;;1.90;99.90;;;;;;5064679;28;20218;-50
2021/12/08 05:44:14;;;;;;;27.02;18.10;;;1.90;99.90;;;;;;5057320;28;20301;-53
2021/12/08 05:46:44;;;;;;;29.25;20.08;;;1.90;99.90;;;;;;5070605;28;20296;-47
2021/12/08 05:49:13;;;;;;;26.50;16.95;;;1.90;99.90;;;;;;5071961;28;20804;-54
2021/12/08 05:51:41;;;;;;;29.02;17.85;;;1.90;99.90;;;;;;5069083;28;20767;-53
2021/12/08 05:54:12;;;;;;;29.83;18.58;;;1.90;99.90;;;;;;5064828;28;21062;-51
2021/12/08 05:56:39;;;;;;;25.90;18.02;;;2.00;99.90;;;;;;5069481;28;20260;-49
2021/12/08 05:59:07;;;;;;;25.23;16.08;;;2.00;99.90;;;;;;5070628;28;20212;-54
2021/12/08 06:01:45;;;;;;;27.48;16.98;;;2.00;99.90;;;;;;5059827;28;20212;-51
2021/12/08 06:04:12;;;;;;;26.33;16.88;;;1.90;99.90;;;;;;5069047;28;20727;-48
2021/12/08 06:06:38;;;;;;;24.50;16.85;;;1.90;99.90;;;;;;5060566;28;20209;-52
2021/12/08 06:09:08;;;;;;;26.55;17.02;;;2.00;99.90;;;;;;5071268;28;20189;-54
2021/12/08 06:11:34;;;;;;;24.92;16.35;;;2.00;99.90;;;;;;5071121;28;20200;-49
2021/12/08 06:14:01;;;;;;;27.33;16.75;;;2.00;99.90;;;;;;5067678;28;20193;-51
2021/12/08 06:16:31;;;;;;;27.33;17.73;;;2.00;99.90;;;;;;5051289;28;20190;-48
2021/12/08 06:18:58;;;;;;;26.40;16.65;;;2.00;99.90;;;;;;5062466;28;20207;-50
2021/12/08 06:21:27;;;;;;;23.58;16.15;;;2.00;99.90;;;;;;5068305;28;20185;-52
2021/12/08 06:23:54;;;;;;;23.45;15.65;;;2.00;99.90;;;;;;5051263;28;20284;-49
2021/12/08 06:26:22;;;;;;;21.25;14.23;;;1.90;99.90;;;;;;5051233;28;20214;-51
2021/12/08 06:28:49;;;;;;;20.58;14.82;;;1.90;99.90;;;;;;5051165;28;20174;-54
2021/12/08 06:31:17;;;;;;;25.00;15.60;;;1.90;99.90;;;;;;5054011;28;21071;-50
2021/12/08 06:33:43;;;;;;;22.05;15.00;;;1.90;99.90;;;;;;5050473;28;20705;-54
2021/12/08 06:36:19;;;;;;;22.30;14.20;;;1.90;99.90;;;;;;5067195;28;20285;-55
2021/12/08 06:38:45;;;;;;;21.70;14.23;;;1.90;99.90;;;;;;5070899;28;20423;-51
2021/12/08 06:41:17;;;;;;;23.70;15.27;;;1.80;99.90;;;;;;5069978;28;20190;-51
2021/12/08 06:43:47;;;;;;;24.73;14.65;;;1.80;99.90;;;;;;5058937;28;20444;-49
2021/12/08 06:46:14;;;;;;;22.95;15.35;;;1.70;99.90;;;;;;5050425;28;20952;-54
2021/12/08 06:48:45;;;;;;;26.20;16.15;;;1.70;99.90;;;;;;5050728;28;20182;-54
2021/12/08 06:51:19;;;;;;;27.23;15.30;;;1.70;99.90;;;;;;5056102;28;20304;-52
2021/12/08 06:53:48;;;;;;;31.70;21.38;;;1.70;99.90;;;;;;5050631;28;20197;-53
2021/12/08 06:56:19;;;;;;;26.63;15.65;;;1.60;99.90;;;;;;5063112;28;20173;-56
2021/12/08 06:58:48;;;;;;;22.15;14.23;;;1.70;99.90;;;;;;5061941;28;20580;-51
2021/12/08 07:01:28;;;;;;;22.80;14.20;;;1.70;99.90;;;;;;5054721;28;20225;-51
2021/12/08 07:07:21;;;;;;;29.02;15.48;;;1.60;99.90;;;;;;5046219;28;20249;-53
2021/12/08 07:09:51;;;;;;;23.90;13.75;;;1.70;99.90;;;;;;5046632;28;20214;-51
2021/12/08 07:12:21;;;;;;;23.77;14.90;;;1.70;99.90;;;;;;5055799;28;20185;-50
2021/12/08 07:14:55;;;;;;;23.00;14.63;;;1.70;99.90;;;;;;5055802;28;20644;-51
2021/12/08 07:17:24;;;;;;;21.33;14.60;;;1.80;99.90;;;;;;5058840;28;20198;-51
2021/12/08 07:20:14;;;;;;;26.65;16.10;;;1.80;99.90;;;;;;5054019;28;20243;-48
2021/12/08 07:22:39;;;;;;;22.88;14.32;;;1.80;99.90;;;;;;5046749;28;20259;-49
2021/12/08 07:25:05;;;;;;;22.53;14.30;;;1.80;99.90;;;;;;5086459;28;20220;-48
2021/12/08 07:27:34;;;;;;;23.05;13.85;;;1.90;99.90;;;;;;5083252;28;20205;-54
2021/12/08 07:30:05;;;;;;;24.85;15.95;;;1.90;99.90;;;;;;5088332;28;20189;-55
2021/12/08 07:32:35;;;;;;;22.23;13.90;;;2.00;99.90;;;;;;5080456;28;20181;-52
2021/12/08 07:35:07;;;;;;;23.15;14.30;;;2.10;99.90;;;;;;5085958;28;20583;-49
2021/12/08 07:37:34;;;;;;;23.77;14.70;;;2.10;99.90;;;;;;5087499;28;20211;-52
2021/12/08 07:40:20;;;;;;;21.63;14.85;;;2.20;99.90;;;;;;5076474;28;20673;-49
2021/12/08 07:42:50;;;;;;;22.52;15.10;;;2.30;99.90;;;;;;5085768;28;20213;-55
2021/12/08 07:45:23;;;;;;;22.75;14.18;;;2.30;99.90;;;;;;5050504;28;20246;-55
2021/12/08 07:47:51;;;;;;;24.92;13.77;;;2.40;99.90;;;;;;5076927;28;20211;-53
2021/12/08 07:50:22;;;;;;;21.23;14.05;;;2.50;99.90;;;;;;5068770;28;20239;-50
2021/12/08 07:52:50;;;;;;;22.67;14.55;;;2.70;99.90;;;;;;5072863;28;20189;-55
2021/12/08 07:55:21;;;;;;;19.25;13.07;;;2.80;99.90;;;;;;5068513;28;20192;-53
2021/12/08 07:57:48;;;;;;;20.92;13.20;;;2.80;99.90;;;;;;5087158;28;20215;-55
2021/12/08 08:00:23;;;;;;;19.80;13.07;;;2.90;99.90;;;;;;5088789;28;20902;-49
2021/12/08 08:02:51;;;;;;;19.77;12.30;;;2.80;99.90;;;;;;5089164;28;20179;-58
2021/12/08 08:05:22;;;;;;;19.33;13.45;;;3.00;99.90;;;;;;5088714;28;20173;-52
2021/12/08 08:07:50;;;;;;;19.77;13.23;;;3.10;99.90;;;;;;5067209;28;20182;-49
2021/12/08 08:10:17;;;;;;;20.15;12.38;;;3.20;99.90;;;;;;5088424;28;20196;-54
2021/12/08 08:12:47;;;;;;;18.23;12.43;;;3.20;99.90;;;;;;5076975;28;20794;-49
2021/12/08 08:15:21;;;;;;;20.13;12.75;;;3.20;99.90;;;;;;5068071;28;20178;-56
2021/12/08 08:17:51;;;;;;;18.85;13.00;;;3.10;99.90;;;;;;5054918;28;20177;-51
2021/12/08 08:20:25;;;;;;;16.63;12.43;;;3.10;99.90;;;;;;5082068;28;20177;-55
2021/12/08 08:22:52;;;;;;;15.98;11.80;;;3.10;99.90;;;;;;5060431;28;20232;-52
2021/12/08 08:25:21;;;;;;;18.70;11.85;;;3.10;99.90;;;;;;5082241;28;20704;-48
2021/12/08 08:27:48;;;;;;;16.88;11.95;;;3.20;99.90;;;;;;5088655;28;20187;-51
2021/12/08 08:30:20;;;;;;;16.17;11.82;;;3.40;99.90;;;;;;5069490;28;20178;-51
2021/12/08 08:32:49;;;;;;;16.10;11.60;;;3.40;99.90;;;;;;5086556;28;20642;-50
2021/12/08 08:35:18;;;;;;;17.30;11.93;;;3.60;99.90;;;;;;5067411;28;20647;-52
2021/12/08 08:37:44;;;;;;;18.02;12.35;;;3.90;99.90;;;;;;5067082;28;20193;-51
2021/12/08 08:40:16;;;;;;;15.85;11.43;;;4.20;99.90;;;;;;5065719;28;20251;-51
2021/12/08 08:42:43;;;;;;;16.20;11.52;;;4.60;99.90;;;;;;5059775;28;20194;-50
2021/12/08 08:45:19;;;;;;;15.43;11.77;;;4.90;99.90;;;;;;5078180;28;20192;-54
2021/12/08 08:47:59;;;;;;;15.43;11.60;;;5.00;99.90;;;;;;5067236;28;20243;-53
2021/12/08 08:50:44;;;;;;;14.70;11.18;;;5.30;99.90;;;;;;5078049;28;20180;-53
2021/12/08 08:53:10;;;;;;;19.20;12.25;;;5.20;99.90;;;;;;5088575;28;20189;-50
2021/12/08 08:55:48;;;;;;;17.40;13.23;;;5.10;99.90;;;;;;5079380;28;20189;-52
2021/12/08 08:58:16;;;;;;;15.63;11.32;;;5.00;99.90;;;;;;5081307;28;20467;-51
2021/12/08 09:00:50;;;;;;;15.63;11.82;;;5.00;99.90;;;;;;5071799;28;20198;-48
2021/12/08 09:03:20;;;;;;;15.20;11.95;;;4.90;99.90;;;;;;5083899;28;20643;-51
2021/12/08 09:05:54;;;;;;;13.90;11.75;;;4.90;99.90;;;;;;5088187;28;20212;-52
2021/12/08 09:08:24;;;;;;;15.85;11.10;;;4.90;99.90;;;;;;5083802;28;20181;-51
2021/12/08 09:11:16;;;;;;;14.18;11.45;;;5.10;99.90;;;;;;5080634;28;20180;-54
2021/12/08 09:13:59;;;;;;;14.52;10.25;;;5.40;99.90;;;;;;5088142;28;20192;-54
2021/12/08 09:16:34;;;;;;;16.65;12.15;;;5.70;99.90;;;;;;5071488;28;20710;-49
2021/12/08 09:19:14;;;;;;;13.50;11.63;;;6.00;99.90;;;;;;5067233;28;20212;-54
2021/12/08 09:21:43;;;;;;;14.33;10.83;;;6.30;99.90;;;;;;5078947;28;20243;-55
2021/12/08 09:24:21;;;;;;;15.38;12.40;;;6.40;99.90;;;;;;5065963;28;20518;-52
2021/12/08 09:26:56;;;;;;;14.88;11.80;;;6.20;99.30;;;;;;5065644;28;20236;-51
2021/12/08 09:29:26;;;;;;;13.90;10.80;;;6.20;99.70;;;;;;5065606;28;20177;-52
2021/12/08 09:32:08;;;;;;;14.13;10.40;;;6.00;99.80;;;;;;5067845;28;20644;-53
2021/12/08 09:34:45;;;;;;;13.40;11.20;;;5.90;99.90;;;;;;5067718;28;20404;-53
2021/12/08 09:37:17;;;;;;;14.65;11.80;;;5.70;99.90;;;;;;5069704;28;20204;-55
2021/12/08 09:39:47;;;;;;;13.98;11.80;;;5.60;99.90;;;;;;5083378;28;20197;-50
2021/12/08 09:42:25;;;;;;;14.75;11.25;;;5.60;99.90;;;;;;5070683;28;20185;-49
2021/12/08 09:44:57;;;;;;;17.45;12.27;;;5.40;99.90;;;;;;5059735;28;20197;-53
2021/12/08 09:47:29;;;;;;;15.98;12.05;;;5.30;99.90;;;;;;5085731;28;20204;-57
2021/12/08 09:49:56;;;;;;;16.25;11.02;;;5.40;99.90;;;;;;5090473;28;20188;-51
2021/12/08 09:52:22;;;;;;;14.52;11.98;;;5.50;99.90;;;;;;5091407;28;20184;-52
2021/12/08 09:54:48;;;;;;;17.00;12.13;;;5.80;99.90;;;;;;5081570;28;20178;-54
2021/12/08 09:57:15;;;;;;;13.80;12.00;;;6.10;99.90;;;;;;5071087;28;20748;-50
2021/12/08 09:59:46;;;;;;;16.02;11.52;;;5.90;99.90;;;;;;5071167;28;20416;-48
2021/12/08 10:02:18;;;;;;;15.90;12.90;;;6.30;99.90;;;;;;5070903;28;20173;-52
2021/12/08 10:04:43;;;;;;;15.10;12.00;;;6.60;99.10;;;;;;5070963;28;20423;-52
2021/12/08 10:07:10;;;;;;;16.50;12.87;;;7.20;99.00;;;;;;5070457;28;20473;-54
2021/12/08 10:09:36;;;;;;;15.80;12.50;;;7.30;96.80;;;;;;5070766;28;20181;-56
2021/12/08 10:12:02;;;;;;;16.87;14.27;;;7.20;96.30;;;;;;5081177;28;20425;-56
2021/12/08 10:14:28;;;;;;;17.57;13.33;;;7.10;96.80;;;;;;5090511;28;20647;-49
2021/12/08 10:16:54;;;;;;;17.30;13.17;;;7.10;96.60;;;;;;5090768;28;20496;-48
2021/12/08 10:19:20;;;;;;;19.00;14.53;;;6.80;96.70;;;;;;5090651;28;20204;-56
2021/12/08 10:21:47;;;;;;;16.10;13.50;;;6.60;97.00;;;;;;5087009;28;20764;-50
2021/12/08 10:24:24;;;;;;;16.52;13.52;;;6.50;97.10;;;;;;5071665;28;21378;-54
2021/12/08 10:26:52;;;;;;;16.30;12.90;;;6.10;97.50;;;;;;5070889;28;20221;-55
2021/12/08 10:29:29;;;;;;;19.08;13.23;;;5.80;98.60;;;;;;5072440;28;20198;-58
2021/12/08 10:31:56;;;;;;;16.88;12.25;;;5.70;99.10;;;;;;5089666;28;20508;-59
2021/12/08 10:34:29;;;;;;;19.67;13.32;;;5.60;99.60;;;;;;5077846;28;20181;-57
2021/12/08 10:37:05;;;;;;;20.25;15.25;;;5.50;99.90;;;;;;5090729;28;20193;-58
2021/12/08 10:39:47;;;;;;;18.83;14.88;;;5.30;99.90;;;;;;5085675;28;20219;-53
2021/12/08 10:42:17;;;;;;;17.58;15.23;;;4.90;99.90;;;;;;5089907;28;20205;-50
2021/12/08 10:47:36;;;;;;;20.67;14.10;;;4.70;99.90;;;;;;5089805;28;20250;-52
2021/12/08 10:56:10;;;;;;;22.23;15.05;;;4.20;99.90;;;;;;5062589;28;20189;-51
2021/12/08 10:58:39;;;;;;;19.98;14.20;;;4.30;99.90;;;;;;5069695;28;20204;-53
2021/12/08 11:01:16;;;;;;;19.90;13.65;;;4.40;99.90;;;;;;5070044;28;20186;-53
2021/12/08 11:03:43;;;;;;;20.48;14.70;;;4.40;99.90;;;;;;5066015;28;20789;-53
2021/12/08 11:06:13;;;;;;;25.15;16.33;;;4.40;99.90;;;;;;5090117;28;20212;-50
2021/12/08 11:08:40;;;;;;;21.73;15.70;;;4.40;99.90;;;;;;5076311;28;20177;-54
2021/12/08 11:11:22;;;;;;;20.65;14.90;;;4.50;99.90;;;;;;5057001;28;20222;-56
2021/12/08 11:13:52;;;;;;;22.08;16.25;;;4.50;99.90;;;;;;5085524;28;20557;-50
2021/12/08 11:16:19;;;;;;;24.52;15.90;;;4.40;99.90;;;;;;5083044;28;20177;-54
2021/12/08 11:19:09;;;;;;;23.83;16.60;;;4.40;99.90;;;;;;5086035;28;20189;-50
2021/12/08 11:21:39;;;;;;;22.15;15.20;;;4.40;99.90;;;;;;5079173;28;20223;-49
2021/12/08 11:24:21;;;;;;;25.00;16.63;;;4.40;99.90;;;;;;5085796;28;20235;-50
2021/12/08 11:26:50;;;;;;;22.65;16.50;;;4.50;99.90;;;;;;5069652;28;20216;-54
2021/12/08 11:29:18;;;;;;;22.00;15.75;;;4.30;99.90;;;;;;5089160;28;20170;-54
2021/12/08 11:32:02;;;;;;;20.40;15.00;;;4.30;99.90;;;;;;5076617;28;20593;-50
2021/12/08 11:34:29;;;;;;;22.75;15.98;;;4.40;99.90;;;;;;5069352;28;20169;-54
2021/12/08 11:37:09;;;;;;;20.38;15.73;;;4.40;99.90;;;;;;5068745;28;20283;-53
2021/12/08 11:39:38;;;;;;;23.10;16.00;;;4.50;99.90;;;;;;5077411;28;20209;-54
2021/12/08 11:42:19;;;;;;;23.35;16.60;;;4.30;99.90;;;;;;5086001;28;20324;-52
2021/12/08 11:44:47;;;;;;;20.20;15.07;;;4.30;99.90;;;;;;5061671;28;20281;-51
2021/12/08 11:47:27;;;;;;;22.92;16.08;;;4.00;99.90;;;;;;5077435;28;20204;-50
2021/12/08 11:49:56;;;;;;;20.92;16.02;;;4.10;99.90;;;;;;5088264;28;20211;-53
2021/12/08 11:52:26;;;;;;;24.50;16.80;;;4.10;99.90;;;;;;5072442;28;20811;-53
2021/12/08 11:54:51;;;;;;;21.83;16.30;;;4.00;99.90;;;;;;5078047;28;20300;-52
2021/12/08 11:57:21;;;;;;;23.87;16.60;;;3.90;99.90;;;;;;5071318;28;20264;-54
2021/12/08 11:59:49;;;;;;;25.80;16.60;;;3.90;99.90;;;;;;5078428;28;20509;-54
2021/12/08 12:02:15;;;;;;;23.25;16.00;;;3.90;99.90;;;;;;5068503;28;20186;-51
2021/12/08 12:04:42;;;;;;;23.40;16.25;;;3.90;99.90;;;;;;5068322;28;20200;-53
2021/12/08 12:07:13;;;;;;;22.38;16.00;;;3.80;99.90;;;;;;5069376;28;20193;-50
2021/12/08 12:09:40;;;;;;;22.88;15.25;;;3.70;99.90;;;;;;5067003;28;20678;-52
2021/12/08 12:12:06;;;;;;;24.65;16.77;;;3.60;99.90;;;;;;5068016;28;20217;-49
2021/12/08 12:14:32;;;;;;;24.13;16.15;;;3.40;99.90;;;;;;5071559;28;20255;-50
2021/12/08 12:16:57;;;;;;;22.40;14.67;;;3.40;99.90;;;;;;5067354;28;20212;-50
2021/12/08 12:19:30;;;;;;;22.17;15.57;;;3.40;99.90;;;;;;5067037;28;20675;-50
2021/12/08 12:22:19;;;;;;;23.95;15.70;;;3.30;99.90;;;;;;5065191;28;20188;-50
2021/12/08 12:25:03;;;;;;;26.73;17.08;;;3.20;99.90;;;;;;5026961;28;20207;-52
2021/12/08 12:27:38;;;;;;;22.95;17.17;;;3.30;99.90;;;;;;5028738;28;20202;-51
2021/12/08 12:30:19;;;;;;;22.45;16.17;;;3.20;99.90;;;;;;5028019;28;20619;-53
2021/12/08 12:32:48;;;;;;;25.63;15.60;;;3.00;99.90;;;;;;5031822;28;20213;-54
2021/12/08 12:35:21;;;;;;;24.08;16.13;;;3.00;99.90;;;;;;5027548;28;20302;-51
2021/12/08 12:37:49;;;;;;;24.35;15.75;;;2.90;99.90;;;;;;5025105;28;20677;-49
2021/12/08 12:40:28;;;;;;;26.40;16.40;;;2.80;99.90;;;;;;5024440;28;20187;-53
2021/12/08 12:42:56;;;;;;;25.45;16.33;;;2.80;99.90;;;;;;5027909;28;20194;-49
2021/12/08 12:45:24;;;;;;;22.05;14.25;;;2.80;99.90;;;;;;5028317;28;20178;-50
2021/12/08 12:48:06;;;;;;;24.08;16.05;;;2.90;99.90;;;;;;5021136;28;20285;-53
2021/12/08 12:50:51;;;;;;;22.80;15.60;;;2.80;99.90;;;;;;5027557;28;20193;-49
2021/12/08 12:53:34;;;;;;;21.35;14.60;;;2.70;99.90;;;;;;5009013;28;20229;-51
2021/12/08 12:56:00;;;;;;;24.65;15.93;;;2.80;99.90;;;;;;5025228;28;20215;-49
2021/12/08 12:58:44;;;;;;;25.40;15.98;;;2.70;99.90;;;;;;5012157;28;20641;-64
2021/12/08 13:01:33;;;;;;;23.30;16.27;;;2.70;99.90;;;;;;5023249;28;20197;-63
2021/12/08 13:04:09;;;;;;;24.48;16.63;;;2.80;99.90;;;;;;5024069;28;20172;-64
2021/12/08 13:06:39;;;;;;;27.90;17.90;;;2.80;99.90;;;;;;5021611;28;20207;-63
2021/12/08 13:09:06;;;;;;;26.80;16.60;;;2.70;99.90;;;;;;5025186;28;20960;-63
2021/12/08 13:11:40;;;;;;;25.75;16.90;;;2.70;99.90;;;;;;5024588;28;20181;-62
2021/12/08 13:14:26;;;;;;;24.15;16.52;;;2.60;99.90;;;;;;5027426;28;20171;-63
2021/12/08 13:17:21;;;;;;;24.83;17.02;;;2.70;99.90;;;;;;5009035;28;20279;-63
2021/12/08 13:19:56;;;;;;;29.23;18.02;;;2.60;99.90;;;;;;5030977;28;20223;-63
2021/12/08 13:22:56;;;;;;;28.45;17.95;;;2.60;99.90;;;;;;5036434;28;20672;-63
2021/12/08 13:25:28;;;;;;;26.55;16.65;;;2.70;99.90;;;;;;5012250;28;20202;-63
2021/12/08 13:28:14;;;;;;;27.02;16.90;;;2.70;99.90;;;;;;5049549;28;20174;-62
2021/12/08 13:31:13;;;;;;;27.17;17.60;;;2.60;99.90;;;;;;5049105;28;20261;-63
2021/12/08 13:33:44;;;;;;;24.92;16.75;;;2.70;99.90;;;;;;5050087;28;20175;-64
2021/12/08 13:36:23;;;;;;;29.52;17.23;;;2.60;99.90;;;;;;5050572;28;20201;-63
2021/12/08 13:38:57;;;;;;;30.40;18.42;;;2.60;99.90;;;;;;5050639;28;20194;-65